KLGC/LGC METAR and TAF weather

Enter ICAO airport designator
Station Type Date Time Source
KLGC METAR 2022/05/26 04:55 UTC NOAA

KLGC 260455Z AUTO 00000KT 10SM CLR 21/19 A3008 RMK AO2 T02050188


Station Type Date Time Source
KLGC Decoded METAR 2022/05/26 04:55 UTC NOAA

La Grange, Callaway Airport, GA, United States (KLGC) 33-00-32N 085-04-21W
May 26, 2022 - 12:55 AM EDT / 2022.05.26 0455 UTC
Wind: Calm:0
Visibility: 10 mile(s):0
Sky conditions: clear
Temperature: 68.9 F (20.5 C)
Dew Point: 65.8 F (18.8 C)
Relative Humidity: 89%
Pressure (altimeter): 30.08 in. Hg (1018 hPa)
ob: KLGC 260455Z AUTO 00000KT 10SM CLR 21/19 A3008 RMK AO2 T02050188
cycle: 5

Station Type Date Time Source
KLGC TAF UTC NOAA

Error!

Example: see airport list